createdAt,value
2017-01-01T00:07:17.596Z,40.5
2017-01-01T00:18:18.031Z,40.7
2017-01-01T00:29:17.745Z,40
2017-01-01T00:40:17.871Z,40.1
2017-01-01T00:51:18.095Z,40.1
2017-01-01T01:02:17.758Z,36.3
2017-01-01T01:13:18.451Z,35.5
2017-01-01T01:24:17.907Z,34.3
2017-01-01T01:35:17.754Z,33.4
2017-01-01T01:46:17.843Z,32.7
2017-01-01T01:57:17.513Z,32
2017-01-01T02:08:19.382Z,32.6
2017-01-01T02:19:17.596Z,33.4
2017-01-01T02:30:17.553Z,33.9
2017-01-01T02:41:18.079Z,34.1
2017-01-01T02:52:17.571Z,33.9
2017-01-01T03:03:17.688Z,34.6
2017-01-01T03:14:17.385Z,34.9
2017-01-01T03:25:17.437Z,35.3
2017-01-01T03:36:17.548Z,35.4
2017-01-01T03:47:17.384Z,35.7
2017-01-01T03:58:17.543Z,35.8
2017-01-01T04:09:17.216Z,36.3
2017-01-01T04:20:17.865Z,36.2
2017-01-01T04:31:18.073Z,36.3
2017-01-01T04:42:17.782Z,36.3
2017-01-01T04:53:17.656Z,36.8
2017-01-01T05:04:17.932Z,36.5
2017-01-01T05:15:17.607Z,37
2017-01-01T05:26:17.567Z,36.9
2017-01-01T05:37:17.726Z,37.3
2017-01-01T05:48:17.195Z,37.4
2017-01-01T05:59:17.546Z,37.4
2017-01-01T06:10:18.190Z,38
2017-01-01T06:21:17.735Z,37.8
2017-01-01T06:32:17.651Z,37.7
2017-01-01T06:43:18.153Z,38.1
2017-01-01T06:54:17.403Z,38.2
2017-01-01T07:05:17.623Z,38.6
2017-01-01T07:16:17.611Z,38.2
2017-01-01T07:27:17.185Z,38.2
2017-01-01T07:38:17.954Z,38.3
2017-01-01T07:49:18.193Z,38.9
2017-01-01T08:00:18.386Z,38.5
2017-01-01T08:11:17.252Z,38.9
2017-01-01T08:22:17.939Z,39.1
2017-01-01T08:33:17.231Z,39
2017-01-01T08:44:18.202Z,39
2017-01-01T08:55:17.765Z,39.4
2017-01-01T09:06:16.943Z,49.1
2017-01-01T09:17:17.816Z,35.6
2017-01-01T09:28:17.525Z,39.5
2017-01-01T09:39:17.404Z,39.8
2017-01-01T09:50:18.084Z,39.7
2017-01-01T10:01:17.402Z,40
2017-01-01T10:12:17.489Z,39.9
2017-01-01T10:23:17.995Z,40.1
2017-01-01T10:34:18.090Z,39.7
2017-01-01T10:45:17.720Z,40.2
2017-01-01T10:56:17.625Z,40.2
2017-01-01T11:07:18.079Z,40.2
2017-01-01T11:18:17.239Z,40.2
2017-01-01T11:29:17.647Z,40.2
2017-01-01T11:40:17.531Z,40.1
2017-01-01T11:51:17.552Z,40.2
2017-01-01T12:02:18.185Z,40.1
2017-01-01T12:13:18.112Z,40.7
2017-01-01T12:24:17.499Z,40.3
2017-01-01T12:35:17.635Z,40.5
2017-01-01T12:46:17.543Z,40.5
2017-01-01T12:57:18.280Z,39.9
2017-01-01T13:08:17.946Z,38.4
2017-01-01T13:19:19.063Z,37.5
2017-01-01T13:30:18.502Z,36.2
2017-01-01T13:41:18.376Z,35.5
2017-01-01T13:52:18.551Z,277.7
2017-01-01T14:03:17.889Z,278.5
2017-01-01T14:14:17.652Z,279.4
2017-01-01T14:25:17.351Z,277.4
2017-01-01T14:36:18.134Z,275.9
2017-01-01T14:47:17.544Z,274.3
2017-01-01T14:58:17.362Z,273.9
2017-01-01T15:09:17.882Z,275.5
2017-01-01T15:20:18.234Z,268.9
2017-01-01T15:31:17.553Z,274
2017-01-01T15:42:17.518Z,272.4
2017-01-01T15:53:17.325Z,267.8
2017-01-01T16:04:17.882Z,270.2
2017-01-01T16:15:17.798Z,275.7
2017-01-01T16:26:17.495Z,274.6
2017-01-01T16:37:17.754Z,274.3
2017-01-01T16:48:17.554Z,270.3
2017-01-01T16:59:18.307Z,272.2
2017-01-01T17:10:18.375Z,273.6
2017-01-01T17:21:18.039Z,272.8
2017-01-01T17:32:18.119Z,274.5
2017-01-01T17:43:18.331Z,269.6
2017-01-01T17:54:17.620Z,274.9
2017-01-01T18:05:17.887Z,275.2
2017-01-01T18:16:18.192Z,275.7
2017-01-01T18:27:17.764Z,273.9
2017-01-01T18:38:18.018Z,274.2
2017-01-01T18:49:17.797Z,275.1
2017-01-01T19:00:18.600Z,276.9
2017-01-01T19:11:17.439Z,272.4
2017-01-01T19:22:17.940Z,276.4
2017-01-01T19:33:17.935Z,277.6
2017-01-01T19:44:17.881Z,277.2
2017-01-01T19:55:17.293Z,276.2
2017-01-01T20:06:17.654Z,276.9
2017-01-01T20:17:18.233Z,277.8
2017-01-01T20:28:17.576Z,274.6
2017-01-01T20:39:17.757Z,278.2
2017-01-01T20:50:18.232Z,273.4
2017-01-01T21:01:18.182Z,274.2
2017-01-01T21:12:17.838Z,272.9
2017-01-01T21:23:17.857Z,277.8
2017-01-01T21:34:18.067Z,277
2017-01-01T21:45:17.708Z,276.7
2017-01-01T21:56:17.714Z,275.4
2017-01-01T22:07:18.500Z,276.6
2017-01-01T22:18:17.584Z,276.9
2017-01-01T22:29:17.903Z,276.4
2017-01-01T22:40:17.853Z,275.5
2017-01-01T22:51:18.045Z,274.4
2017-01-01T23:02:18.230Z,276.9
2017-01-01T23:13:17.974Z,277.7
2017-01-01T23:24:18.631Z,277.2
2017-01-01T23:35:17.793Z,278.6
2017-01-01T23:46:17.952Z,278.3
2017-01-01T23:57:18.028Z,279.1
